Time;durP1;ratioP1;P1;durP2;ratioP2;P2;SDS_P1;SDS_P2;PMS_P1;PMS_P2;Temp;Humidity;BMP_temperature;BMP_pressure;BME280_temperature;BME280_humidity;BME280_pressure;Samples;Min_cycle;Max_cycle;Signal;HPM_P1;HPM_P2
2022/12/03 02:06:48;;;;;;;7.25;3.33;;;;;;;-2.05;100.00;101106.06;1783907;78;27595;-68
2022/12/03 02:09:15;;;;;;;6.90;3.17;;;;;;;-1.91;100.00;101112.51;1763053;80;21674;-66
2022/12/03 02:11:47;;;;;;;4.70;3.30;;;;;;;-1.80;100.00;101111.56;1753726;79;21801;-67
2022/12/03 02:14:18;;;;;;;3.83;2.98;;;;;;;-1.67;100.00;101115.40;1759260;79;21000;-65
2022/12/03 02:16:45;;;;;;;4.72;3.10;;;;;;;-1.57;100.00;101114.41;1762066;79;21561;-68
2022/12/03 02:19:25;;;;;;;5.00;3.55;;;;;;;-1.45;100.00;101119.09;1759477;79;21496;-66
2022/12/03 02:22:24;;;;;;;3.22;2.83;;;;;;;-1.33;100.00;101118.98;1760240;80;21664;-66
2022/12/03 02:25:05;;;;;;;14.80;2.87;;;;;;;-1.24;100.00;101119.25;1758459;80;21793;-65
2022/12/03 02:27:31;;;;;;;4.75;2.83;;;;;;;-1.16;100.00;101119.47;1755627;79;21659;-66
2022/12/03 02:29:58;;;;;;;4.42;2.75;;;;;;;-1.10;100.00;101119.64;1743151;80;21497;-66
2022/12/03 02:32:24;;;;;;;3.92;2.60;;;;;;;-1.04;100.00;101117.22;1755240;80;21504;-67
2022/12/03 02:34:51;;;;;;;5.17;3.17;;;;;;;-0.99;100.00;101113.06;1755507;79;21652;-66
2022/12/03 02:37:31;;;;;;;4.25;3.20;;;;;;;-0.89;100.00;101119.35;1744535;80;21518;-66
2022/12/03 02:40:06;;;;;;;3.67;2.98;;;;;;;-0.83;100.00;101114.34;1755087;79;21505;-66
2022/12/03 02:42:35;;;;;;;5.00;3.40;;;;;;;-0.77;100.00;101108.08;1751510;79;21635;-67
2022/12/03 02:45:20;;;;;;;4.33;2.75;;;;;;;-0.72;100.00;101114.22;1749134;80;21540;-67
2022/12/03 02:48:17;;;;;;;3.70;2.85;;;;;;;-0.69;100.00;101113.02;1744120;80;21473;-67
2022/12/03 02:50:55;;;;;;;;;;;;;;;-0.65;100.00;101116.13;1762174;80;21851;-66
2022/12/03 02:53:33;;;;;;;4.70;2.95;;;;;;;-0.68;100.00;101110.91;1759963;79;20585;-66
2022/12/03 02:56:01;;;;;;;3.58;2.83;;;;;;;-0.63;100.00;101111.87;1745680;79;21423;-67
2022/12/03 02:58:29;;;;;;;5.50;3.75;;;;;;;-0.62;100.00;101116.23;1763044;79;21493;-67
2022/12/03 03:00:55;;;;;;;5.90;2.92;;;;;;;-0.62;100.00;101116.23;1750677;80;21631;-67
2022/12/03 03:03:22;;;;;;;4.03;3.17;;;;;;;-0.61;100.00;101121.84;1746029;80;21825;-66
2022/12/03 03:05:48;;;;;;;5.10;2.98;;;;;;;-0.62;100.00;101119.23;1725258;79;20929;-67
2022/12/03 03:08:15;;;;;;;4.08;3.10;;;;;;;-0.59;100.00;101120.16;1747479;80;21536;-68
2022/12/03 03:10:42;;;;;;;5.28;3.60;;;;;;;-0.56;100.00;101123.27;1754735;79;21532;-67
2022/12/03 03:13:12;;;;;;;5.85;2.72;;;;;;;-0.55;100.00;101125.00;1747490;79;21552;-67
2022/12/03 03:15:39;;;;;;;4.45;2.87;;;;;;;-0.55;100.00;101123.70;1762026;80;22055;-66
2022/12/03 03:18:06;;;;;;;;;;;;;;;-0.53;100.00;101129.78;1762357;79;21588;-67
2022/12/03 03:20:32;;;;;;;3.93;2.83;;;;;;;-0.60;100.00;101126.61;1751165;80;20175;-66
2022/12/03 03:23:15;;;;;;;5.17;2.60;;;;;;;-0.59;100.00;101129.63;1743594;79;21485;-66
2022/12/03 03:25:45;;;;;;;4.62;2.92;;;;;;;-0.56;100.00;101123.69;1684591;81;21064;-66
2022/12/03 03:28:12;;;;;;;4.80;3.00;;;;;;;-0.55;100.00;101123.70;1727273;81;21790;-66
2022/12/03 03:30:39;;;;;;;10.53;3.10;;;;;;;-0.53;100.00;101129.78;1703486;81;21480;-66
2022/12/03 03:33:06;;;;;;;3.20;2.90;;;;;;;-0.51;100.00;101126.85;1712011;81;21481;-66
2022/12/03 03:35:32;;;;;;;4.90;2.80;;;;;;;-0.47;100.00;101134.23;1712198;82;21491;-68
2022/12/03 03:37:59;;;;;;;5.75;3.35;;;;;;;-0.48;100.00;101137.25;1712258;81;21514;-68
2022/12/03 03:40:25;;;;;;;3.42;2.98;;;;;;;-0.45;100.00;101139.06;1700894;83;21522;-68
2022/12/03 03:42:52;;;;;;;5.70;3.20;;;;;;;-0.45;100.00;101141.22;1694477;83;21552;-67
2022/12/03 03:45:19;;;;;;;5.83;3.15;;;;;;;-0.43;100.00;101146.43;1698037;83;21506;-71
2022/12/03 03:47:46;;;;;;;3.72;2.92;;;;;;;-0.43;100.00;101145.14;1723571;81;21609;-67
2022/12/03 03:50:12;;;;;;;3.40;2.87;;;;;;;-0.44;100.00;101146.82;1710499;83;21711;-67
2022/12/03 03:52:39;;;;;;;3.95;2.87;;;;;;;-0.39;100.00;101145.67;1698902;83;21890;-65
2022/12/03 03:55:06;;;;;;;3.37;3.08;;;;;;;-0.41;100.00;101148.63;1677771;83;21559;-65
2022/12/03 03:57:33;;;;;;;3.27;2.85;;;;;;;-0.40;100.00;101149.07;1690294;82;21411;-65
2022/12/03 03:59:59;;;;;;;3.50;2.80;;;;;;;-0.42;100.00;101148.16;1693950;83;21593;-66
2022/12/03 04:02:26;;;;;;;3.75;2.87;;;;;;;-0.40;100.00;101150.37;1687184;83;21601;-66
2022/12/03 04:04:52;;;;;;;3.65;3.30;;;;;;;-0.39;100.00;101156.00;1686516;83;21921;-66
2022/12/03 04:07:19;;;;;;;5.60;3.30;;;;;;;-0.35;100.00;101154.38;1689372;83;21553;-65
2022/12/03 04:09:45;;;;;;;3.80;3.05;;;;;;;-0.34;100.00;101157.41;1655363;83;21550;-66
2022/12/03 04:14:58;;;;;;;4.75;2.83;;;;;;;-0.35;100.00;101155.67;1684469;83;21672;-66
2022/12/03 04:17:24;;;;;;;4.55;3.27;;;;;;;-0.37;100.00;101162.09;1703414;82;21917;-66
2022/12/03 04:19:51;;;;;;;5.05;3.37;;;;;;;-0.37;100.00;101157.34;1689467;83;21512;-66
2022/12/03 04:30:35;;;;;;;4.35;3.40;;;;;;;-0.42;100.00;101170.13;1759757;80;21798;-66
2022/12/03 04:35:46;;;;;;;4.17;3.50;;;;;;;-0.45;100.00;101170.94;1752974;79;21506;-66
2022/12/03 04:38:14;;;;;;;4.58;3.12;;;;;;;-0.44;100.00;101171.80;1742913;80;21524;-66
2022/12/03 04:40:59;;;;;;;4.95;4.10;;;;;;;-0.46;100.00;101169.17;1753658;80;21541;-65
2022/12/03 04:43:27;;;;;;;4.67;3.05;;;;;;;-0.47;100.00;101172.61;1752384;80;21988;-69
2022/12/03 04:45:53;;;;;;;;;;;;;;;-0.48;100.00;101177.30;1743882;80;20950;-70
2022/12/03 04:48:20;;;;;;;5.53;3.20;;;;;;;-0.53;100.00;101175.43;1748845;80;20475;-69
2022/12/03 04:50:46;;;;;;;3.62;2.95;;;;;;;-0.54;100.00;101178.86;1697122;83;21506;-70
2022/12/03 04:53:13;;;;;;;6.90;2.65;;;;;;;-0.55;100.00;101185.72;1707691;82;21470;-68
2022/12/03 04:55:40;;;;;;;6.05;3.20;;;;;;;-0.55;100.00;101184.85;1699374;83;21387;-70
2022/12/03 04:58:06;;;;;;;5.33;3.65;;;;;;;-0.53;100.00;101189.22;1700921;83;21616;-70
2022/12/03 05:00:32;;;;;;;4.92;2.77;;;;;;;-0.53;100.00;101186.63;1701134;82;21086;-70
2022/12/03 05:02:59;;;;;;;4.25;3.12;;;;;;;-0.50;100.00;101196.20;1701225;81;21608;-70
2022/12/03 05:05:25;;;;;;;3.90;2.77;;;;;;;-0.52;100.00;101190.98;1703109;81;21465;-70
2022/12/03 05:07:51;;;;;;;5.87;4.03;;;;;;;-0.53;100.00;101196.97;1695716;82;21770;-70
2022/12/03 05:10:19;;;;;;;4.15;3.12;;;;;;;-0.53;100.00;101196.97;1703884;83;21525;-70
2022/12/03 05:36:26;;;;;;;3.30;2.72;;;;;;;-0.57;100.00;101223.98;1694647;82;21675;-70
2022/12/03 05:38:52;;;;;;;3.70;3.25;;;;;;;-0.57;100.00;101223.98;1675568;82;20978;-69
2022/12/03 05:44:04;;;;;;;5.20;3.10;;;;;;;-0.56;100.00;101229.20;1686980;82;21594;-68
2022/12/03 05:46:31;;;;;;;5.45;3.67;;;;;;;-0.55;100.00;101230.93;1676379;83;21450;-69
2022/12/03 05:48:58;;;;;;;4.67;3.30;;;;;;;-0.55;100.00;101233.52;1677392;83;21331;-69
2022/12/03 05:51:24;;;;;;;3.52;2.98;;;;;;;-0.49;100.00;101237.59;1662722;83;21620;-69
2022/12/03 05:53:51;;;;;;;3.55;3.17;;;;;;;-0.50;100.00;101237.11;1688698;81;21545;-68
2022/12/03 10:30:56;;;;;;;13.35;7.90;;;;;;;-2.12;100.00;101380.75;1769416;78;23284;-59
2022/12/03 10:33:31;;;;;;;15.35;8.18;;;;;;;-1.97;100.00;101390.33;1738498;80;21533;-59
2022/12/03 10:36:20;;;;;;;13.83;8.03;;;;;;;-1.80;100.00;101390.06;1738832;80;21843;-59
2022/12/03 10:39:08;;;;;;;13.38;7.35;;;;;;;-1.66;100.00;101385.38;1741600;80;21554;-60
2022/12/03 10:41:36;;;;;;;11.22;7.45;;;;;;;-1.50;100.00;101385.51;1701192;83;21504;-58
2022/12/03 10:44:18;;;;;;;14.50;7.45;;;;;;;-1.41;100.00;101381.53;1702676;83;21568;-60
2022/12/03 10:46:47;;;;;;;11.70;7.40;;;;;;;-1.31;100.00;101385.30;1705695;83;21564;-60
2022/12/03 10:49:16;;;;;;;14.13;7.45;;;;;;;-1.26;100.00;101384.14;1696118;82;21926;-60
2022/12/03 10:51:46;;;;;;;13.13;7.45;;;;;;;-1.18;100.00;101384.87;1702683;82;21793;-58
2022/12/03 10:54:21;;;;;;;13.70;7.60;;;;;;;-1.13;100.00;101390.20;1679135;83;21051;-60
2022/12/03 10:56:49;;;;;;;13.25;8.55;;;;;;;-1.06;100.00;101382.22;1695253;82;21612;-59
2022/12/03 10:59:20;;;;;;;13.03;7.72;;;;;;;-0.97;100.00;101390.27;1699311;82;21565;-59
2022/12/03 11:01:46;;;;;;;14.33;8.48;;;;;;;-0.88;100.00;101384.53;1709808;82;21919;-59
2022/12/03 11:04:23;;;;;;;12.00;7.85;;;;;;;-0.79;100.00;101389.56;1696233;82;21538;-60
2022/12/03 11:06:49;;;;;;;11.55;7.10;;;;;;;-0.73;100.00;101391.89;1633050;79;21659;-62
2022/12/03 11:09:23;;;;;;;14.30;7.87;;;;;;;-0.68;100.00;101391.20;1580065;88;21655;-62
2022/12/03 11:11:50;;;;;;;11.53;7.30;;;;;;;-0.64;100.00;101393.05;1580326;90;21457;-62
2022/12/03 11:14:55;;;;;;;11.45;7.12;;;;;;;-0.56;100.00;101388.53;1577965;89;21885;-62
2022/12/03 11:17:49;;;;;;;12.85;6.87;;;;;;;-0.54;100.00;101398.08;1582374;88;21540;-61
2022/12/03 11:20:33;;;;;;;11.48;7.05;;;;;;;-0.56;100.00;101403.61;1581605;87;21623;-61
2022/12/03 11:23:00;;;;;;;9.08;6.00;;;;;;;-0.56;100.00;101407.48;1578400;88;21601;-62
2022/12/03 11:25:35;;;;;;;10.30;6.80;;;;;;;-0.60;100.00;101407.80;1581528;89;21076;-63
2022/12/03 11:28:20;;;;;;;8.28;5.95;;;;;;;-0.65;100.00;101409.78;1581968;88;21843;-61
2022/12/03 11:30:57;;;;;;;9.50;6.80;;;;;;;-0.66;100.00;101417.95;1575652;88;21606;-61
2022/12/03 11:33:39;;;;;;;8.98;6.20;;;;;;;-0.65;100.00;101417.53;1579363;88;21521;-61
2022/12/03 11:36:09;;;;;;;7.47;6.03;;;;;;;-0.97;100.00;101361.00;1580482;88;21128;-60
2022/12/03 11:38:42;;;;;;;8.80;6.60;;;;;;;-0.69;100.00;101412.69;1580452;88;21629;-61
2022/12/03 11:41:16;;;;;;;9.43;6.10;;;;;;;-0.67;100.00;101417.48;1581271;88;21512;-61
2022/12/03 11:43:56;;;;;;;7.17;5.62;;;;;;;-0.60;100.00;101406.94;1579680;88;21494;-63
2022/12/03 11:46:43;;;;;;;6.78;6.03;;;;;;;-0.56;100.00;101415.23;1580447;88;21528;-61
2022/12/03 11:49:34;;;;;;;7.92;5.92;;;;;;;-0.54;100.00;101416.16;1580811;88;21521;-61
2022/12/03 11:52:06;;;;;;;7.10;5.35;;;;;;;-0.55;100.00;101423.86;1580481;88;21064;-61
2022/12/03 11:54:33;;;;;;;7.95;6.20;;;;;;;-0.57;100.00;101421.64;1579457;88;21788;-61
2022/12/03 11:57:01;;;;;;;7.85;5.30;;;;;;;-0.60;100.00;101425.02;1556662;88;21119;-60
2022/12/03 11:59:28;;;;;;;9.80;5.67;;;;;;;-0.60;100.00;101425.02;1581115;88;21571;-62
2022/12/03 12:01:54;;;;;;;14.28;6.22;;;;;;;-0.60;100.00;101431.48;1580191;88;21458;-61
2022/12/03 12:04:55;;;;;;;7.12;5.55;;;;;;;-0.61;100.00;101429.71;1581090;89;21544;-61
2022/12/03 12:07:35;;;;;;;8.05;5.37;;;;;;;-0.64;100.00;101428.31;1587232;88;21888;-61
2022/12/03 12:10:02;;;;;;;6.70;4.85;;;;;;;-0.71;100.00;101427.69;1584101;88;21626;-60
2022/12/03 12:12:43;;;;;;;9.38;6.60;;;;;;;-0.74;100.00;101424.57;1582598;89;21561;-62
2022/12/03 12:15:44;;;;;;;12.63;5.65;;;;;;;-0.70;100.00;101429.42;1527432;92;21611;-61
2022/12/03 12:18:43;;;;;;;8.58;5.65;;;;;;;-0.72;100.00;101433.24;1583617;88;21483;-60
2022/12/03 12:21:49;;;;;;;9.70;5.47;;;;;;;-0.74;100.00;101435.33;1580783;89;22052;-61
2022/12/03 12:24:45;;;;;;;5.83;5.03;;;;;;;-0.79;100.00;101441.23;1603171;87;21605;-61
2022/12/03 12:27:20;;;;;;;9.15;4.95;;;;;;;-0.85;100.00;101443.63;1602431;87;21557;-62
2022/12/03 12:29:55;;;;;;;9.50;5.15;;;;;;;-0.87;100.00;101448.25;1604011;87;21496;-62
2022/12/03 12:32:33;;;;;;;5.45;4.80;;;;;;;-0.92;100.00;101448.12;1617846;86;21592;-62
2022/12/03 12:35:19;;;;;;;;;;;;;;;-0.92;100.00;101449.41;1623576;86;21828;-63
2022/12/03 12:38:12;;;;;;;5.20;4.15;;;;;;;-0.94;100.00;101450.16;1623809;86;20446;-61
2022/12/03 12:40:41;;;;;;;8.50;5.53;;;;;;;-0.89;100.00;101455.08;1624418;86;21530;-62
2022/12/03 12:43:16;;;;;;;7.20;4.80;;;;;;;-0.96;100.00;101441.10;1624525;86;21529;-61
2022/12/03 12:45:43;;;;;;;5.67;4.60;;;;;;;-0.85;100.00;101456.53;1623908;86;21623;-62
2022/12/03 12:48:25;;;;;;;6.30;5.33;;;;;;;-0.84;100.00;101466.44;1624445;86;21897;-61
2022/12/03 12:51:13;;;;;;;5.90;4.92;;;;;;;-0.84;100.00;101466.02;1623661;86;21699;-63
2022/12/03 12:53:45;;;;;;;7.05;4.72;;;;;;;-0.83;100.00;101464.30;1619297;86;21528;-60
2022/12/03 12:56:27;;;;;;;8.15;4.97;;;;;;;-0.85;100.00;101462.98;1622011;86;21597;-63
2022/12/03 12:58:53;;;;;;;6.35;4.70;;;;;;;-0.91;100.00;101465.34;1623646;86;21611;-62
2022/12/03 13:01:26;;;;;;;7.87;4.70;;;;;;;-0.94;100.00;101471.72;1625092;87;22035;-62
2022/12/03 13:03:53;;;;;;;6.22;4.83;;;;;;;-1.00;100.00;101471.11;1623600;86;21636;-61
2022/12/03 13:06:26;;;;;;;7.50;4.80;;;;;;;-1.00;100.00;101479.23;1625738;87;21557;-61
2022/12/03 13:08:53;;;;;;;8.43;4.92;;;;;;;-1.02;100.00;101479.61;1624305;86;21661;-60
2022/12/03 13:11:31;;;;;;;6.62;4.53;;;;;;;-1.05;100.00;101479.52;1624513;86;21648;-61
2022/12/03 13:13:57;;;;;;;8.05;5.12;;;;;;;-1.04;100.00;101487.72;1623498;86;21707;-62
2022/12/03 13:16:31;;;;;;;5.05;4.55;;;;;;;-1.06;100.00;101485.50;1620172;86;21025;-62
2022/12/03 13:18:59;;;;;;;5.33;4.20;;;;;;;-1.09;100.00;101491.45;1623599;86;21549;-60
2022/12/03 13:21:40;;;;;;;4.95;4.08;;;;;;;-1.09;100.00;101504.74;1624713;86;21589;-60
2022/12/03 13:24:35;;;;;;;5.90;4.30;;;;;;;-1.09;100.00;101501.77;1641794;85;21426;-61
2022/12/03 13:27:21;;;;;;;6.83;4.62;;;;;;;-1.09;100.00;101504.74;1653271;84;21841;-62
2022/12/03 13:29:53;;;;;;;7.97;4.78;;;;;;;-1.43;100.00;101452.86;1651736;85;21438;-62
2022/12/03 13:32:34;;;;;;;5.25;4.30;;;;;;;-1.11;100.00;101503.43;1650384;84;21147;-61
2022/12/03 13:35:22;;;;;;;7.10;4.70;;;;;;;-1.13;100.00;101508.95;1652483;84;21581;-61
2022/12/03 13:37:49;;;;;;;6.00;4.30;;;;;;;-1.15;100.00;101509.70;1649233;84;21477;-61
2022/12/03 13:40:31;;;;;;;10.63;4.30;;;;;;;-1.17;100.00;101516.09;1618890;86;21894;-62
2022/12/03 13:42:58;;;;;;;5.78;4.30;;;;;;;-1.17;100.00;101512.23;1607332;86;21558;-60
2022/12/03 13:45:37;;;;;;;5.73;4.70;;;;;;;-1.20;100.00;101516.88;1640936;84;21470;-60
2022/12/03 13:48:22;;;;;;;6.45;4.58;;;;;;;-1.19;100.00;101521.63;1616234;86;21589;-61
2022/12/03 13:50:49;;;;;;;6.20;4.12;;;;;;;-1.18;100.00;101524.69;1617952;86;20983;-60
2022/12/03 13:53:23;;;;;;;7.42;3.95;;;;;;;-1.22;100.00;101531.44;1617226;87;21565;-60
2022/12/03 13:56:21;;;;;;;9.05;4.62;;;;;;;-1.23;100.00;101536.13;1617613;86;21572;-61
2022/12/03 13:58:48;;;;;;;4.30;3.58;;;;;;;-1.24;100.00;101538.25;1620714;87;21478;-61
2022/12/03 14:01:14;;;;;;;6.58;4.83;;;;;;;-1.25;100.00;101542.06;1650320;84;21591;-63
2022/12/03 14:03:41;;;;;;;6.30;4.62;;;;;;;-1.24;100.00;101545.13;1648657;84;21556;-60
2022/12/03 14:14:00;;;;;;;8.08;5.08;;;;;;;-1.73;100.00;101545.50;1834057;75;26252;-58
2022/12/03 14:16:26;;;;;;;5.10;4.50;;;;;;;-1.64;100.00;101551.00;1803824;77;20970;-60
2022/12/03 14:18:53;;;;;;;6.37;4.80;;;;;;;-1.61;100.00;101540.78;1808031;77;21737;-60
2022/12/03 14:21:20;;;;;;;7.80;5.37;;;;;;;-1.59;100.00;101536.97;1745930;80;21698;-59
2022/12/03 14:23:46;;;;;;;6.65;5.17;;;;;;;-1.61;100.00;101534.75;1758413;80;21038;-65
2022/12/03 14:26:13;;;;;;;6.12;4.92;;;;;;;-2.03;100.00;101464.88;1830266;77;21615;-61
2022/12/03 14:28:40;;;;;;;7.40;4.75;;;;;;;-1.62;100.00;101531.30;1810616;77;21585;-60
2022/12/03 14:31:07;;;;;;;7.60;4.90;;;;;;;-1.66;100.00;101538.42;1808323;77;21766;-61
2022/12/03 14:33:34;;;;;;;7.47;4.87;;;;;;;-1.65;100.00;101538.91;1818838;77;21514;-59
2022/12/03 14:36:01;;;;;;;6.08;4.62;;;;;;;-1.66;100.00;101542.72;1812742;77;21521;-61
2022/12/03 14:38:28;;;;;;;5.05;4.55;;;;;;;-1.67;100.00;101539.27;1785006;77;21636;-60
2022/12/03 14:40:55;;;;;;;5.45;4.90;;;;;;;-1.71;100.00;101549.39;1747788;79;21559;-60
2022/12/03 14:43:21;;;;;;;6.00;4.53;;;;;;;-1.76;100.00;101552.69;1737931;80;21888;-58
2022/12/03 14:45:48;;;;;;;6.15;4.60;;;;;;;-1.76;100.00;101547.53;1776487;79;21025;-61
2022/12/03 14:48:15;;;;;;;6.70;4.63;;;;;;;-1.76;100.00;101549.23;1776447;78;21564;-60
2022/12/03 14:50:41;;;;;;;7.12;4.87;;;;;;;-1.78;100.00;101548.30;1778488;78;21572;-59
2022/12/03 14:53:08;;;;;;;7.20;4.85;;;;;;;-1.76;100.00;101544.08;1763409;78;21097;-59
2022/12/03 14:55:34;;;;;;;6.90;4.70;;;;;;;-1.74;100.00;101543.72;1774226;78;21837;-59
2022/12/03 14:58:01;;;;;;;5.58;4.67;;;;;;;-1.73;100.00;101548.46;1719256;80;21409;-59
2022/12/03 15:00:28;;;;;;;6.15;4.28;;;;;;;-1.74;100.00;101550.17;1820003;77;21541;-60
2022/12/03 15:02:54;;;;;;;8.23;5.47;;;;;;;-1.72;100.00;101558.84;1812765;77;21650;-61
2022/12/03 15:05:22;;;;;;;5.80;4.37;;;;;;;-1.69;100.00;101559.39;1823227;77;21562;-60
2022/12/03 15:07:48;;;;;;;5.53;4.33;;;;;;;-1.70;100.00;101559.78;1812583;77;21788;-63
2022/12/03 15:10:15;;;;;;;7.67;5.20;;;;;;;-1.69;100.00;101552.94;1817995;77;21509;-59
2022/12/03 15:12:42;;;;;;;6.92;4.67;;;;;;;-1.67;100.00;101562.91;1805468;78;20965;-62
2022/12/03 15:15:10;;;;;;;4.97;4.47;;;;;;;-1.69;100.00;101558.97;1812166;77;21571;-60
2022/12/03 15:17:36;;;;;;;5.80;4.50;;;;;;;-1.70;100.00;101566.64;1811456;77;21520;-66
2022/12/03 15:20:04;;;;;;;5.97;4.58;;;;;;;-1.68;100.00;101571.02;1804184;77;21887;-66
2022/12/03 15:22:31;;;;;;;4.97;4.10;;;;;;;-1.66;100.00;101568.09;1804218;77;20994;-67
2022/12/03 15:24:57;;;;;;;4.95;4.12;;;;;;;-1.64;100.00;101566.86;1813985;77;21536;-67
2022/12/03 15:27:24;;;;;;;8.33;4.75;;;;;;;-1.63;100.00;101573.80;1817089;77;21437;-65
2022/12/03 15:29:50;;;;;;;6.35;4.85;;;;;;;-1.62;100.00;101574.25;1816062;77;21020;-65
2022/12/03 15:32:17;;;;;;;7.03;4.70;;;;;;;-1.61;100.00;101576.89;1809852;77;21848;-63
2022/12/03 15:34:43;;;;;;;6.03;4.58;;;;;;;-1.60;100.00;101577.38;1814133;77;21583;-63
2022/12/03 15:37:10;;;;;;;8.35;4.95;;;;;;;-1.57;100.00;101583.05;1813365;77;21525;-63
2022/12/03 15:39:37;;;;;;;7.65;5.10;;;;;;;-1.55;100.00;101590.44;1820262;77;21085;-63
2022/12/03 15:42:03;;;;;;;7.00;5.40;;;;;;;-1.52;100.00;101584.11;1798209;77;21667;-64
2022/12/03 15:44:30;;;;;;;9.05;5.03;;;;;;;-1.48;100.00;101585.11;1807919;77;21825;-63
2022/12/03 15:46:56;;;;;;;7.25;5.05;;;;;;;-1.47;100.00;101578.72;1812498;77;20951;-63
2022/12/03 18:28:15;;;;;;;7.33;5.35;;;;;;;-3.25;100.00;101661.13;1771570;78;23233;-69
2022/12/03 18:30:43;;;;;;;8.65;5.08;;;;;;;-3.06;100.00;101669.27;1735631;80;21734;-71
2022/12/03 18:33:09;;;;;;;6.67;4.93;;;;;;;-2.92;100.00;101671.58;1736171;80;21781;-71
2022/12/03 18:35:35;;;;;;;7.15;4.92;;;;;;;-2.80;100.00;101678.16;1693052;83;21664;-71
2022/12/03 18:38:02;;;;;;;7.78;4.95;;;;;;;-2.70;100.00;101687.58;1700925;82;21032;-70
2022/12/03 18:40:29;;;;;;;6.60;4.87;;;;;;;-2.58;100.00;101685.13;1699595;83;21044;-70
2022/12/03 18:42:56;;;;;;;7.22;4.97;;;;;;;-2.46;100.00;101688.64;1690570;83;21545;-71
2022/12/03 18:45:23;;;;;;;6.92;4.78;;;;;;;-2.37;100.00;101694.19;1700435;83;21924;-71
2022/12/03 18:47:50;;;;;;;;;;;;;;;-2.27;100.00;101693.29;1686187;82;21537;-72
2022/12/03 18:50:19;;;;;;;6.58;5.00;;;;;;;-2.23;100.00;101691.31;1676952;83;20409;-72
2022/12/03 18:52:46;;;;;;;7.10;4.67;;;;;;;-2.14;100.00;101695.56;1684527;83;21621;-69
2022/12/03 18:55:17;;;;;;;5.87;4.55;;;;;;;-2.08;100.00;101696.22;1690229;83;21562;-70
2022/12/03 18:57:44;;;;;;;7.78;4.85;;;;;;;-2.02;100.00;101693.47;1692802;83;21833;-70
2022/12/03 19:00:14;;;;;;;6.50;4.92;;;;;;;-1.96;100.00;101692.46;1679014;83;21596;-70
2022/12/03 19:02:41;;;;;;;8.50;5.30;;;;;;;-1.90;100.00;101694.41;1697007;82;21458;-70
2022/12/03 19:05:08;;;;;;;8.33;5.10;;;;;;;-1.84;100.00;101700.22;1682664;83;21478;-70
2022/12/03 19:07:36;;;;;;;6.47;5.05;;;;;;;-1.81;100.00;101706.39;1694419;83;21522;-69
2022/12/03 19:10:04;;;;;;;7.33;4.40;;;;;;;-1.76;100.00;101700.98;1694865;82;21576;-70
2022/12/03 19:12:31;;;;;;;6.00;4.67;;;;;;;-1.74;100.00;101697.19;1683266;83;24326;-73
2022/12/03 19:14:58;;;;;;;6.53;4.50;;;;;;;-1.72;100.00;101698.13;1680288;83;21529;-72
2022/12/03 19:17:26;;;;;;;5.22;4.72;;;;;;;-1.68;100.00;101701.28;1690307;83;21589;-71
2022/12/03 19:19:53;;;;;;;6.70;4.12;;;;;;;-1.64;100.00;101700.62;1697006;82;21628;-72
2022/12/03 19:22:20;;;;;;;5.75;4.60;;;;;;;-1.62;100.00;101698.08;1687709;83;22043;-73
2022/12/03 19:24:46;;;;;;;4.20;3.72;;;;;;;-1.60;100.00;101704.17;1696079;82;21608;-73
2022/12/03 19:27:13;;;;;;;9.98;3.87;;;;;;;-1.60;100.00;101702.50;1693218;83;21571;-72
2022/12/03 19:29:40;;;;;;;5.62;4.17;;;;;;;-1.57;100.00;101705.17;1735707;80;21487;-71
2022/12/03 19:32:06;;;;;;;6.73;4.63;;;;;;;-1.58;100.00;101700.85;1727089;80;21525;-69
2022/12/03 19:34:33;;;;;;;6.35;4.35;;;;;;;-1.60;100.00;101702.50;1727893;80;21892;-69
2022/12/03 19:37:02;;;;;;;5.42;3.92;;;;;;;-1.59;100.00;101711.98;1721098;82;21522;-69
2022/12/03 19:39:29;;;;;;;8.53;4.20;;;;;;;-1.58;100.00;101706.43;1670992;83;21505;-68
2022/12/03 19:41:56;;;;;;;7.40;4.37;;;;;;;-1.52;100.00;101708.37;1709249;81;21623;-69
2022/12/03 19:44:23;;;;;;;11.55;4.78;;;;;;;-1.55;100.00;101705.66;1684724;84;21414;-67
2022/12/03 19:46:50;;;;;;;6.03;3.70;;;;;;;-1.59;100.00;101713.27;1723620;80;21489;-71
2022/12/03 19:49:19;;;;;;;4.75;4.15;;;;;;;-1.63;100.00;101719.13;1721315;81;21522;-69
2022/12/03 19:51:46;;;;;;;6.53;4.65;;;;;;;-1.65;100.00;101724.64;1685385;84;21628;-69
2022/12/03 19:54:12;;;;;;;5.28;4.47;;;;;;;-1.75;100.00;101691.57;1692479;82;21569;-70
2022/12/03 19:56:39;;;;;;;6.33;4.62;;;;;;;-1.64;100.00;101718.67;1683270;84;21567;-71
2022/12/03 19:59:06;;;;;;;5.53;4.62;;;;;;;-1.62;100.00;101716.13;1730717;80;21862;-71
2022/12/03 20:01:34;;;;;;;6.80;4.33;;;;;;;-1.64;100.00;101723.84;1726744;80;21408;-69
2022/12/03 20:04:02;;;;;;;6.15;4.45;;;;;;;-1.67;100.00;101725.41;1716010;80;21522;-70
2022/12/03 20:06:30;;;;;;;;;;;;;;;-1.74;100.00;101713.95;1731105;80;21598;-71
2022/12/03 20:09:02;;;;;;;5.85;4.45;;;;;;;-1.76;100.00;101725.91;1724097;80;20436;-71
2022/12/03 20:11:30;;;;;;;7.45;5.12;;;;;;;-1.79;100.00;101736.08;1685680;84;21513;-70
2022/12/03 20:14:02;;;;;;;6.28;4.72;;;;;;;-1.81;100.00;101738.63;1685641;83;21506;-69
2022/12/03 20:16:29;;;;;;;5.33;4.75;;;;;;;-1.82;100.00;101745.00;1664465;84;21542;-71
2022/12/03 20:18:58;;;;;;;6.95;5.25;;;;;;;-1.82;100.00;101747.16;1671489;83;21598;-70
2022/12/03 20:21:25;;;;;;;7.97;5.30;;;;;;;-1.84;100.00;101751.80;1731518;80;21569;-71
2022/12/03 20:23:52;;;;;;;7.17;5.00;;;;;;;-1.81;100.00;101753.20;1725806;81;21926;-70
2022/12/03 20:26:19;;;;;;;7.60;5.70;;;;;;;-1.84;100.00;101751.80;1664290;84;21587;-71
2022/12/03 20:28:49;;;;;;;9.60;5.00;;;;;;;-1.90;100.00;101757.58;1729404;80;21571;-70
2022/12/03 20:31:18;;;;;;;8.20;4.95;;;;;;;-1.93;100.00;101756.16;1726955;80;21511;-70
2022/12/03 20:33:48;;;;;;;6.78;4.85;;;;;;;-1.94;100.00;101753.51;1732628;80;21521;-70
2022/12/03 20:36:17;;;;;;;7.78;5.25;;;;;;;-1.96;100.00;101750.86;1735279;80;21975;-70
2022/12/03 20:38:43;;;;;;;6.53;5.22;;;;;;;-1.98;100.00;101750.82;1738710;80;21573;-70
2022/12/03 20:41:13;;;;;;;6.97;5.50;;;;;;;-1.99;100.00;101747.75;1737657;80;21852;-71
2022/12/03 20:43:39;;;;;;;7.95;5.70;;;;;;;-1.96;100.00;101753.44;1744691;80;21702;-70
2022/12/03 20:46:18;;;;;;;8.20;5.78;;;;;;;-1.98;100.00;101751.20;1700650;82;21611;-70
2022/12/03 20:48:44;;;;;;;9.63;5.60;;;;;;;-2.00;100.00;101751.17;1698828;82;21845;-69
2022/12/03 20:51:20;;;;;;;7.42;4.72;;;;;;;-2.00;100.00;101751.55;1695524;83;21729;-70
2022/12/03 20:53:46;;;;;;;9.38;5.90;;;;;;;-2.02;100.00;101750.19;1689531;82;21483;-71
2022/12/03 20:56:22;;;;;;;5.93;4.90;;;;;;;-2.02;100.00;101753.19;1672105;83;21615;-70
2022/12/03 20:58:49;;;;;;;7.08;5.17;;;;;;;-2.06;100.00;101747.02;1682139;83;21890;-70
2022/12/03 21:01:19;;;;;;;5.50;4.93;;;;;;;-2.07;100.00;101745.27;1675773;83;21839;-70
2022/12/03 21:03:46;;;;;;;8.40;5.55;;;;;;;-2.07;100.00;101750.81;1670542;83;21637;-70
2022/12/03 21:06:13;;;;;;;11.50;6.85;;;;;;;-2.09;100.00;101753.73;1683087;84;21578;-71
2022/12/03 21:08:40;;;;;;;10.27;5.90;;;;;;;-2.10;100.00;101752.87;1680798;83;21538;-70
2022/12/03 21:11:13;;;;;;;13.30;7.20;;;;;;;-2.13;100.00;101751.44;1712209;82;21569;-70
2022/12/03 21:13:42;;;;;;;11.57;6.25;;;;;;;-2.11;100.00;101764.01;1693822;82;21813;-71
2022/12/03 21:16:11;;;;;;;12.75;5.67;;;;;;;-2.10;100.00;101758.44;1692459;82;21511;-70
2022/12/03 21:18:38;;;;;;;14.75;5.92;;;;;;;-2.15;100.00;101758.22;1700258;82;21056;-70
2022/12/03 21:21:05;;;;;;;12.80;6.87;;;;;;;-2.18;100.00;101769.72;1687227;83;21442;-70
2022/12/03 21:23:32;;;;;;;10.32;6.20;;;;;;;-2.19;100.00;101766.23;1689221;83;21029;-70
2022/12/03 21:26:08;;;;;;;8.70;5.08;;;;;;;-2.23;100.00;101764.76;1691443;82;21937;-71
2022/12/03 21:28:37;;;;;;;10.93;5.33;;;;;;;-2.26;100.00;101766.81;1682128;83;21466;-71
2022/12/03 21:31:07;;;;;;;9.88;5.17;;;;;;;-2.32;100.00;101769.09;1689249;84;21750;-70
2022/12/03 21:33:34;;;;;;;6.95;5.08;;;;;;;-2.38;100.00;101768.42;1684711;82;21517;-69
2022/12/03 21:36:01;;;;;;;10.60;5.45;;;;;;;-2.44;100.00;101768.16;1668346;83;21472;-70
2022/12/03 21:38:28;;;;;;;7.62;6.15;;;;;;;-2.42;100.00;101770.39;1677433;83;21762;-71
2022/12/03 21:40:55;;;;;;;10.30;5.35;;;;;;;-2.42;100.00;101767.81;1684104;84;21458;-71